createdAt,value
2018-06-07T00:00:46.660Z,10.00
2018-06-07T00:03:17.336Z,10.50
2018-06-07T00:05:46.463Z,10.13
2018-06-07T00:08:15.879Z,11.57
2018-06-07T00:10:47.613Z,9.70
2018-06-07T00:13:16.787Z,9.20
2018-06-07T00:15:47.533Z,9.93
2018-06-07T00:18:18.824Z,9.40
2018-06-07T00:20:48.467Z,9.73
2018-06-07T00:23:18.381Z,9.87
2018-06-07T00:25:50.702Z,10.53
2018-06-07T00:28:21.340Z,9.20
2018-06-07T00:30:50.355Z,9.40
2018-06-07T00:33:20.569Z,9.20
2018-06-07T00:35:54.915Z,9.10
2018-06-07T00:38:26.051Z,8.87
2018-06-07T00:40:55.983Z,10.13
2018-06-07T00:43:25.957Z,10.00
2018-06-07T00:45:57.665Z,10.20
2018-06-07T00:48:29.128Z,8.90
2018-06-07T00:50:58.118Z,8.87
2018-06-07T00:53:28.636Z,10.13
2018-06-07T00:55:58.235Z,9.30
2018-06-07T00:58:28.199Z,9.70
2018-06-07T01:00:58.211Z,9.80
2018-06-07T01:03:31.436Z,10.23
2018-06-07T01:06:02.154Z,9.30
2018-06-07T01:08:32.461Z,9.43
2018-06-07T01:11:01.725Z,10.10
2018-06-07T01:13:31.839Z,9.33
2018-06-07T01:16:01.339Z,10.03
2018-06-07T01:18:32.284Z,9.53
2018-06-07T01:21:03.574Z,11.10
2018-06-07T01:23:33.096Z,10.30
2018-06-07T01:26:05.111Z,9.73
2018-06-07T01:28:37.746Z,8.90
2018-06-07T01:31:16.507Z,9.67
2018-06-07T01:33:49.308Z,9.63
2018-06-07T01:36:19.534Z,8.90
2018-06-07T01:39:08.325Z,10.10
2018-06-07T01:41:37.270Z,9.57
2018-06-07T01:44:08.119Z,10.10
2018-06-07T01:46:40.187Z,9.00
2018-06-07T01:49:09.822Z,9.40
2018-06-07T01:51:43.038Z,9.40
2018-06-07T01:54:14.456Z,10.00
2018-06-07T01:56:43.971Z,9.30
2018-06-07T01:59:15.038Z,9.60
2018-06-07T02:01:43.980Z,9.90
2018-06-07T02:04:12.520Z,9.73
2018-06-07T02:06:43.787Z,9.17
2018-06-07T02:09:12.739Z,10.03
2018-06-07T02:11:42.918Z,9.67
2018-06-07T02:14:12.179Z,9.30
2018-06-07T02:16:43.852Z,9.07
2018-06-07T02:19:14.383Z,9.83
2018-06-07T02:21:45.148Z,9.47
2018-06-07T02:24:16.059Z,9.50
2018-06-07T02:26:48.736Z,9.30
2018-06-07T02:29:18.323Z,10.73
2018-06-07T02:31:50.590Z,9.43
2018-06-07T02:34:21.110Z,10.70
2018-06-07T02:36:51.671Z,10.17
2018-06-07T02:39:21.747Z,9.80
2018-06-07T02:41:51.407Z,9.87
2018-06-07T02:44:21.633Z,8.77
2018-06-07T02:46:53.345Z,8.70
2018-06-07T02:49:25.198Z,10.20
2018-06-07T02:51:53.710Z,10.10
2018-06-07T02:54:23.111Z,9.20
2018-06-07T02:56:53.039Z,9.80
2018-06-07T02:59:25.031Z,9.80
2018-06-07T03:01:53.516Z,9.83
2018-06-07T03:04:23.589Z,10.20
2018-06-07T03:06:52.094Z,9.80
2018-06-07T03:09:21.654Z,9.33
2018-06-07T03:11:51.363Z,10.00
2018-06-07T03:14:20.515Z,10.10
2018-06-07T03:16:50.295Z,9.57
2018-06-07T03:19:21.905Z,10.40
2018-06-07T03:21:51.059Z,10.07
2018-06-07T03:24:19.526Z,10.03
2018-06-07T03:26:50.272Z,10.07
2018-06-07T03:29:22.764Z,10.57
2018-06-07T03:31:53.447Z,11.10
2018-06-07T03:34:23.749Z,10.47
2018-06-07T03:36:55.471Z,9.50
2018-06-07T03:39:27.021Z,9.60
2018-06-07T03:41:57.655Z,10.37
2018-06-07T03:44:29.719Z,9.67
2018-06-07T03:47:00.883Z,8.90
2018-06-07T03:49:32.583Z,10.10
2018-06-07T03:52:01.127Z,10.43
2018-06-07T03:54:40.252Z,10.63
2018-06-07T03:57:10.426Z,11.07
2018-06-07T03:59:40.390Z,9.33
2018-06-07T04:02:11.738Z,10.60
2018-06-07T04:04:42.058Z,9.50
2018-06-07T04:07:14.897Z,10.83
2018-06-07T04:09:48.111Z,9.70
2018-06-07T04:12:18.992Z,8.90
2018-06-07T04:14:50.426Z,9.60
2018-06-07T04:17:18.898Z,10.00
2018-06-07T04:19:47.902Z,10.30
2018-06-07T04:22:17.989Z,11.13
2018-06-07T04:24:47.322Z,10.20
2018-06-07T04:27:17.150Z,9.90
2018-06-07T04:29:46.437Z,10.90
2018-06-07T04:32:15.600Z,9.73
2018-06-07T04:34:48.286Z,10.10
2018-06-07T04:37:18.764Z,9.73
2018-06-07T04:39:49.634Z,10.57
2018-06-07T04:42:18.872Z,9.83
2018-06-07T04:44:50.227Z,9.70
2018-06-07T04:47:18.732Z,10.40
2018-06-07T04:49:48.591Z,9.27
2018-06-07T04:52:20.166Z,9.13
2018-06-07T04:54:50.394Z,7.63
2018-06-07T04:57:21.680Z,7.40
2018-06-07T04:59:54.401Z,7.83
2018-06-07T05:02:26.035Z,7.10
2018-06-07T05:05:00.371Z,10.33
2018-06-07T05:07:29.404Z,8.10
2018-06-07T05:09:58.110Z,8.73
2018-06-07T05:12:30.489Z,10.50
2018-06-07T05:15:01.817Z,8.10
2018-06-07T05:17:30.858Z,9.10
2018-06-07T05:19:59.370Z,9.50
2018-06-07T05:22:27.899Z,8.83
2018-06-07T05:24:56.448Z,9.97
2018-06-07T05:27:25.465Z,8.33
2018-06-07T05:29:55.370Z,9.00
2018-06-07T05:32:27.116Z,8.90
2018-06-07T05:34:57.988Z,8.27
2018-06-07T05:37:29.627Z,10.47
2018-06-07T05:39:59.153Z,8.90
2018-06-07T05:42:28.962Z,9.00
2018-06-07T05:44:57.479Z,9.17
2018-06-07T05:47:25.993Z,9.70
2018-06-07T05:49:55.592Z,9.27
2018-06-07T05:52:26.693Z,9.60
2018-06-07T05:54:58.643Z,9.87
2018-06-07T05:57:27.156Z,8.40
2018-06-07T05:59:57.536Z,8.93
2018-06-07T06:02:27.494Z,8.50
2018-06-07T06:04:55.945Z,9.83
2018-06-07T06:07:24.900Z,9.93
2018-06-07T06:09:54.512Z,8.77
2018-06-07T06:12:24.224Z,8.83
2018-06-07T06:14:55.243Z,8.60
2018-06-07T06:17:24.480Z,7.47
2018-06-07T06:19:53.890Z,6.80
2018-06-07T06:22:24.225Z,6.63
2018-06-07T06:24:53.940Z,7.60
2018-06-07T06:27:22.818Z,7.07
2018-06-07T06:29:51.297Z,7.47
2018-06-07T06:32:21.702Z,6.60
2018-06-07T06:34:51.531Z,8.17
2018-06-07T06:38:32.514Z,6.40
2018-06-07T06:41:01.559Z,6.43
2018-06-07T06:43:30.456Z,6.60
2018-06-07T06:46:02.373Z,6.03
2018-06-07T06:48:34.223Z,5.40
2018-06-07T06:51:02.704Z,5.00
2018-06-07T06:53:32.788Z,5.20
2018-06-07T06:56:02.636Z,5.30
2018-06-07T06:58:33.364Z,5.10
2018-06-07T07:01:02.294Z,4.00
2018-06-07T07:03:30.765Z,4.13
2018-06-07T07:06:01.069Z,4.20
2018-06-07T07:08:29.959Z,3.93
2018-06-07T07:10:58.446Z,4.20
2018-06-07T07:13:29.678Z,5.33
2018-06-07T07:15:59.640Z,4.60
2018-06-07T07:18:32.035Z,4.67
2018-06-07T07:21:02.712Z,4.60
2018-06-07T07:23:34.346Z,4.67
2018-06-07T07:26:03.665Z,4.80
2018-06-07T07:28:32.977Z,5.07
2018-06-07T07:31:03.082Z,4.30
2018-06-07T07:33:32.587Z,4.53
2018-06-07T07:36:02.683Z,4.90
2018-06-07T07:38:33.438Z,5.17
2018-06-07T07:41:03.164Z,4.60
2018-06-07T07:43:31.769Z,5.10
2018-06-07T07:46:02.544Z,4.80
2018-06-07T07:48:31.235Z,5.40
2018-06-07T07:51:01.584Z,4.60
2018-06-07T07:53:32.039Z,4.30
2018-06-07T07:56:01.477Z,4.40
2018-06-07T07:58:33.916Z,4.43
2018-06-07T08:01:02.702Z,3.90
2018-06-07T08:03:30.949Z,4.47
2018-06-07T08:05:59.229Z,4.50
2018-06-07T08:08:27.505Z,4.70
2018-06-07T08:10:57.524Z,4.97
2018-06-07T08:13:30.289Z,4.97
2018-06-07T08:16:02.513Z,4.60
2018-06-07T08:18:33.543Z,4.30
2018-06-07T08:21:07.038Z,4.63
2018-06-07T08:23:35.238Z,5.10
2018-06-07T08:26:06.886Z,4.40
2018-06-07T08:28:35.696Z,5.27
2018-06-07T08:31:05.548Z,4.90
2018-06-07T08:33:34.185Z,5.10
2018-06-07T08:36:03.159Z,5.37
2018-06-07T08:38:32.625Z,4.97
2018-06-07T08:41:01.128Z,5.93
2018-06-07T08:43:35.361Z,5.27
2018-06-07T08:46:05.995Z,4.83
2018-06-07T08:48:38.352Z,5.13
2018-06-07T08:51:08.334Z,6.30
2018-06-07T08:53:40.054Z,5.17
2018-06-07T08:56:10.990Z,5.57
2018-06-07T08:58:41.598Z,5.90
2018-06-07T09:01:11.785Z,5.80
2018-06-07T09:03:41.321Z,5.40
2018-06-07T09:06:10.298Z,4.90
2018-06-07T09:08:40.737Z,5.60
2018-06-07T09:11:10.875Z,6.00
2018-06-07T09:13:39.433Z,6.20
2018-06-07T09:16:11.186Z,5.87
2018-06-07T09:18:41.920Z,6.27
2018-06-07T09:21:12.670Z,6.83
2018-06-07T09:23:42.696Z,5.67
2018-06-07T09:26:10.976Z,6.17
2018-06-07T09:28:44.652Z,6.70
2018-06-07T09:31:13.959Z,6.00
2018-06-07T09:33:45.095Z,6.33
2018-06-07T09:36:13.395Z,6.10
2018-06-07T09:38:43.502Z,6.20
2018-06-07T09:41:12.568Z,7.00
2018-06-07T09:43:42.923Z,6.80
2018-06-07T09:46:13.209Z,5.80
2018-06-07T09:48:44.041Z,6.50
2018-06-07T09:51:16.581Z,6.70
2018-06-07T09:53:49.340Z,6.17
2018-06-07T09:56:18.436Z,6.93
2018-06-07T09:58:50.063Z,6.30
2018-06-07T10:01:22.644Z,6.40
2018-06-07T10:03:50.809Z,6.43
2018-06-07T10:06:22.420Z,6.83
2018-06-07T10:08:51.166Z,6.73
2018-06-07T10:11:20.247Z,7.20
2018-06-07T10:13:49.554Z,7.00
2018-06-07T10:16:18.287Z,6.97
2018-06-07T10:18:49.125Z,6.30
2018-06-07T10:21:17.357Z,6.77
2018-06-07T10:23:46.497Z,7.00
2018-06-07T10:26:15.225Z,6.83
2018-06-07T10:28:44.798Z,7.40
2018-06-07T10:31:14.140Z,7.10
2018-06-07T10:33:44.796Z,7.53
2018-06-07T10:36:14.185Z,6.83
2018-06-07T10:38:43.143Z,7.53
2018-06-07T10:41:14.265Z,8.00
2018-06-07T10:43:43.738Z,7.33
2018-06-07T10:46:14.197Z,7.50
2018-06-07T10:48:45.574Z,7.83
2018-06-07T10:51:18.051Z,8.07
2018-06-07T10:53:48.029Z,8.07
2018-06-07T10:56:17.423Z,8.30
2018-06-07T10:58:46.534Z,8.50
2018-06-07T11:01:16.266Z,8.67
2018-06-07T11:03:46.124Z,8.13
2018-06-07T11:06:17.953Z,8.60
2018-06-07T11:08:47.519Z,8.93
2018-06-07T11:11:19.858Z,8.67
2018-06-07T11:13:49.795Z,9.20
2018-06-07T11:16:19.915Z,9.13
2018-06-07T11:18:49.728Z,8.97
2018-06-07T11:21:19.386Z,9.27
2018-06-07T11:23:47.932Z,9.57
2018-06-07T11:26:17.701Z,8.73
2018-06-07T11:28:48.375Z,9.80
2018-06-07T11:31:20.412Z,9.77
2018-06-07T11:33:50.911Z,9.20
2018-06-07T11:36:20.693Z,9.30
2018-06-07T11:38:51.338Z,9.60
2018-06-07T11:41:22.114Z,10.07
2018-06-07T11:43:51.362Z,9.77
2018-06-07T11:46:21.669Z,10.80
2018-06-07T11:48:50.248Z,10.40
2018-06-07T11:51:26.511Z,10.83
2018-06-07T11:53:57.593Z,9.60
2018-06-07T11:56:29.610Z,10.87
2018-06-07T11:58:59.452Z,10.33
2018-06-07T12:01:28.673Z,10.40
2018-06-07T12:03:58.468Z,10.17
2018-06-07T12:06:30.009Z,10.27
2018-06-07T12:09:01.182Z,10.63
2018-06-07T12:11:31.286Z,10.50
2018-06-07T12:14:00.299Z,10.50
2018-06-07T12:16:29.677Z,10.60
2018-06-07T12:18:59.787Z,10.37
2018-06-07T12:21:33.043Z,10.40
2018-06-07T12:24:02.670Z,11.20
2018-06-07T12:26:31.556Z,10.20
2018-06-07T12:29:01.191Z,10.30
2018-06-07T12:31:30.850Z,10.00
2018-06-07T12:34:02.710Z,10.30
2018-06-07T12:36:34.438Z,9.90
2018-06-07T12:39:07.003Z,10.30
2018-06-07T12:41:38.743Z,11.10
2018-06-07T12:44:10.197Z,12.63
2018-06-07T12:46:41.370Z,10.30
2018-06-07T12:49:10.790Z,10.13
2018-06-07T12:51:41.808Z,9.70
2018-06-07T12:54:10.355Z,10.80
2018-06-07T12:56:43.091Z,9.97
2018-06-07T12:59:11.679Z,10.67
2018-06-07T13:01:41.965Z,9.27
2018-06-07T13:04:12.990Z,9.83
2018-06-07T13:06:42.832Z,9.67
2018-06-07T13:09:11.336Z,9.43
2018-06-07T13:11:41.194Z,10.00
2018-06-07T13:14:12.312Z,10.13
2018-06-07T13:16:43.205Z,10.37
2018-06-07T13:19:12.882Z,10.50
2018-06-07T13:21:41.853Z,11.00
2018-06-07T13:24:13.279Z,10.30
2018-06-07T13:26:42.144Z,9.67
2018-06-07T13:29:10.639Z,9.47
2018-06-07T13:31:41.497Z,9.90
2018-06-07T13:34:10.837Z,10.33
2018-06-07T13:36:39.734Z,10.40
2018-06-07T13:39:09.780Z,9.70
2018-06-07T13:41:38.272Z,10.23
2018-06-07T13:44:09.440Z,9.23
2018-06-07T13:46:39.502Z,10.67
2018-06-07T13:49:09.663Z,10.13
2018-06-07T13:51:38.846Z,11.13
2018-06-07T13:54:07.392Z,10.80
2018-06-07T13:56:37.326Z,10.47
2018-06-07T13:59:07.681Z,10.33
2018-06-07T14:01:36.246Z,10.20
2018-06-07T14:04:05.894Z,10.27
2018-06-07T14:06:36.202Z,10.30
2018-06-07T14:09:10.305Z,10.73
2018-06-07T14:11:40.217Z,10.67
2018-06-07T14:14:09.619Z,11.80
2018-06-07T14:16:39.095Z,10.33
2018-06-07T14:19:09.665Z,11.07
2018-06-07T14:21:38.200Z,12.03
2018-06-07T14:24:08.585Z,10.97
2018-06-07T14:26:38.700Z,10.80
2018-06-07T14:29:07.314Z,11.60
2018-06-07T14:31:38.721Z,11.70
2018-06-07T14:34:07.230Z,10.80
2018-06-07T14:36:35.715Z,11.50
2018-06-07T14:39:07.094Z,11.00
2018-06-07T14:41:35.523Z,9.77
2018-06-07T14:44:04.781Z,10.73
2018-06-07T14:46:34.060Z,10.10
2018-06-07T14:49:03.025Z,11.30
2018-06-07T14:51:33.240Z,11.00
2018-06-07T14:54:04.519Z,10.93
2018-06-07T14:56:35.618Z,11.20
2018-06-07T14:59:04.618Z,10.13
2018-06-07T15:01:36.261Z,11.17
2018-06-07T15:04:04.778Z,10.97
2018-06-07T15:06:34.516Z,10.90
2018-06-07T15:09:05.915Z,12.27
2018-06-07T15:11:37.715Z,10.93
2018-06-07T15:14:07.174Z,11.13
2018-06-07T15:16:36.604Z,11.60
2018-06-07T15:19:07.088Z,10.50
2018-06-07T15:21:35.612Z,10.73
2018-06-07T15:24:06.464Z,11.10
2018-06-07T15:26:36.503Z,11.80
2018-06-07T15:29:06.329Z,11.50
2018-06-07T15:31:35.819Z,10.00
2018-06-07T15:34:04.403Z,10.77
2018-06-07T15:36:33.756Z,10.60
2018-06-07T15:39:07.186Z,9.87
2018-06-07T15:41:37.476Z,9.30
2018-06-07T15:44:06.674Z,10.50
2018-06-07T15:46:39.094Z,10.27
2018-06-07T15:49:09.474Z,9.70
2018-06-07T15:51:38.140Z,9.40
2018-06-07T15:54:08.416Z,10.90
2018-06-07T15:56:37.289Z,9.87
2018-06-07T15:59:09.131Z,10.03
2018-06-07T16:01:40.587Z,9.87
2018-06-07T16:04:11.069Z,10.67
2018-06-07T16:06:40.673Z,10.43
2018-06-07T16:09:11.269Z,9.93
2018-06-07T16:11:44.383Z,10.13
2018-06-07T16:14:12.904Z,10.40
2018-06-07T16:16:42.965Z,10.40
2018-06-07T16:19:12.059Z,9.70
2018-06-07T16:21:41.944Z,10.20
2018-06-07T16:24:12.487Z,10.63
2018-06-07T16:26:45.020Z,10.37
2018-06-07T16:29:17.603Z,10.53
2018-06-07T16:31:47.183Z,10.20
2018-06-07T16:34:19.142Z,10.77
2018-06-07T16:36:47.663Z,10.63
2018-06-07T16:39:18.847Z,11.00
2018-06-07T16:41:49.639Z,10.93
2018-06-07T16:44:21.673Z,10.70
2018-06-07T16:46:50.806Z,10.23
2018-06-07T16:49:21.664Z,11.03
2018-06-07T16:51:50.199Z,11.47
2018-06-07T16:54:22.134Z,10.30
2018-06-07T16:56:53.830Z,10.20
2018-06-07T16:59:23.500Z,9.93
2018-06-07T17:01:54.135Z,10.57
2018-06-07T17:04:22.604Z,10.77
2018-06-07T17:06:52.864Z,10.23
2018-06-07T17:09:24.353Z,10.30
2018-06-07T17:11:55.858Z,10.43
2018-06-07T17:14:28.109Z,10.43
2018-06-07T17:16:57.355Z,10.40
2018-06-07T17:19:26.823Z,11.40
2018-06-07T17:21:57.710Z,10.73
2018-06-07T17:24:28.674Z,11.10
2018-06-07T17:27:00.885Z,11.23
2018-06-07T17:29:29.953Z,11.53
2018-06-07T17:32:00.963Z,12.10
2018-06-07T17:34:30.867Z,11.73
2018-06-07T17:36:59.384Z,10.90
2018-06-07T17:39:29.477Z,11.60
2018-06-07T17:42:08.364Z,10.70
2018-06-07T17:44:39.796Z,12.43
2018-06-07T17:47:10.070Z,10.90
2018-06-07T17:49:38.515Z,12.77
2018-06-07T17:52:14.087Z,10.60
2018-06-07T17:54:43.770Z,11.83
2018-06-07T17:57:16.175Z,11.17
2018-06-07T17:59:47.556Z,11.43
2018-06-07T18:02:16.604Z,11.80
2018-06-07T18:04:45.674Z,11.10
2018-06-07T18:07:20.135Z,10.40
2018-06-07T18:09:48.685Z,10.40
2018-06-07T18:12:17.215Z,9.20
2018-06-07T18:14:45.692Z,9.47
2018-06-07T18:17:14.173Z,9.97
2018-06-07T18:19:43.522Z,9.00
2018-06-07T18:22:15.851Z,7.60
2018-06-07T18:24:44.368Z,9.30
2018-06-07T18:27:12.961Z,8.63
2018-06-07T18:29:42.473Z,8.87
2018-06-07T18:32:12.741Z,8.60
2018-06-07T18:34:43.718Z,9.03
2018-06-07T18:37:15.329Z,8.47
2018-06-07T18:39:44.200Z,8.60
2018-06-07T18:42:14.876Z,8.50
2018-06-07T18:44:43.322Z,8.80
2018-06-07T18:47:11.951Z,8.80
2018-06-07T18:49:41.430Z,8.47
2018-06-07T18:52:10.403Z,8.50
2018-06-07T18:54:43.270Z,7.67
2018-06-07T18:57:12.670Z,8.67
2018-06-07T18:59:45.617Z,8.90
2018-06-07T19:02:17.009Z,8.57
2018-06-07T19:04:45.573Z,9.30
2018-06-07T19:07:21.547Z,9.13
2018-06-07T19:09:56.159Z,10.30
2018-06-07T19:12:26.247Z,9.93
2018-06-07T19:15:00.251Z,10.50
2018-06-07T19:17:35.125Z,9.10
2018-06-07T19:20:14.338Z,9.17
2018-06-07T19:22:45.410Z,9.47
2018-06-07T19:25:19.998Z,9.80
2018-06-07T19:27:51.330Z,9.23
2018-06-07T19:30:21.281Z,9.43
2018-06-07T19:32:57.332Z,10.87
2018-06-07T19:35:26.019Z,9.60
2018-06-07T19:37:54.647Z,9.60
2018-06-07T19:40:30.933Z,9.60
2018-06-07T19:43:03.806Z,9.53
2018-06-07T19:45:35.252Z,10.40
2018-06-07T19:48:05.238Z,9.37
2018-06-07T19:50:36.933Z,10.40
2018-06-07T19:53:08.359Z,10.00
2018-06-07T19:55:39.977Z,9.43
2018-06-07T19:58:13.021Z,10.17
2018-06-07T20:00:41.531Z,9.10
2018-06-07T20:03:15.390Z,9.10
2018-06-07T20:05:49.914Z,8.67
2018-06-07T20:08:21.368Z,9.73
2018-06-07T20:10:50.848Z,9.50
2018-06-07T20:13:20.580Z,9.90
2018-06-07T20:15:49.665Z,10.10
2018-06-07T20:18:18.795Z,9.77
2018-06-07T20:20:49.104Z,9.20
2018-06-07T20:23:20.074Z,9.70
2018-06-07T20:25:53.190Z,9.10
2018-06-07T20:28:22.433Z,8.27
2018-06-07T20:30:55.445Z,9.03
2018-06-07T20:33:31.881Z,9.80
2018-06-07T20:36:06.160Z,8.37
2018-06-07T20:38:38.473Z,8.40
2018-06-07T20:41:08.860Z,10.00
2018-06-07T20:43:43.211Z,9.13
2018-06-07T20:46:13.482Z,9.43
2018-06-07T20:48:42.097Z,9.87
2018-06-07T20:51:15.375Z,10.20
2018-06-07T20:53:46.153Z,9.17
2018-06-07T20:56:15.067Z,9.40
2018-06-07T20:58:43.586Z,10.10
2018-06-07T21:01:15.124Z,10.37
2018-06-07T21:03:48.497Z,12.07
2018-06-07T21:06:18.274Z,11.00
2018-06-07T21:08:48.754Z,12.13
2018-06-07T21:11:17.715Z,11.40
2018-06-07T21:13:49.163Z,12.10
2018-06-07T21:16:18.871Z,11.20
2018-06-07T21:18:51.398Z,11.50
2018-06-07T21:21:21.621Z,10.43
2018-06-07T21:23:51.835Z,11.67
2018-06-07T21:26:21.240Z,11.17
2018-06-07T21:28:51.223Z,10.80
2018-06-07T21:31:24.534Z,9.87
2018-06-07T21:34:01.026Z,10.70
2018-06-07T21:36:30.539Z,10.97
2018-06-07T21:39:01.896Z,11.80
2018-06-07T21:41:32.338Z,11.33
2018-06-07T21:44:03.112Z,11.10
2018-06-07T21:46:34.177Z,10.80
2018-06-07T21:49:03.353Z,12.43
2018-06-07T21:51:34.305Z,11.73
2018-06-07T21:54:04.980Z,12.10
2018-06-07T21:56:34.491Z,12.97
2018-06-07T21:59:05.657Z,11.90
2018-06-07T22:01:35.867Z,13.97
2018-06-07T22:04:05.855Z,11.23
2018-06-07T22:06:36.318Z,12.83
2018-06-07T22:09:10.123Z,11.47
2018-06-07T22:11:42.273Z,11.53
2018-06-07T22:14:13.348Z,11.00
2018-06-07T22:16:44.415Z,11.30
2018-06-07T22:19:15.013Z,11.67
2018-06-07T22:21:46.107Z,12.53
2018-06-07T22:24:15.553Z,12.20
2018-06-07T22:26:44.847Z,14.20
2018-06-07T22:29:17.344Z,11.90
2018-06-07T22:31:48.253Z,11.80
2018-06-07T22:34:21.165Z,12.07
2018-06-07T22:36:50.344Z,12.60
2018-06-07T22:39:21.273Z,12.00
2018-06-07T22:41:50.110Z,12.00
2018-06-07T22:44:20.428Z,11.37
2018-06-07T22:46:51.023Z,11.97
2018-06-07T22:49:23.027Z,12.70
2018-06-07T22:51:54.353Z,12.47
2018-06-07T22:54:26.281Z,12.07
2018-06-07T22:56:58.169Z,12.90
2018-06-07T22:59:28.722Z,12.03
2018-06-07T23:01:59.028Z,11.90
2018-06-07T23:04:29.299Z,11.37
2018-06-07T23:06:58.445Z,11.90
2018-06-07T23:09:28.451Z,11.10
2018-06-07T23:11:58.934Z,13.20
2018-06-07T23:14:28.810Z,11.77
2018-06-07T23:16:57.271Z,13.30
2018-06-07T23:19:32.886Z,13.77
2018-06-07T23:22:02.846Z,14.40
2018-06-07T23:24:32.680Z,14.13
2018-06-07T23:27:04.171Z,14.30
2018-06-07T23:29:35.029Z,14.80
2018-06-07T23:32:03.891Z,14.47
2018-06-07T23:34:33.439Z,14.20
2018-06-07T23:37:03.255Z,14.53
2018-06-07T23:39:35.251Z,13.70
2018-06-07T23:42:07.755Z,15.53
2018-06-07T23:44:39.857Z,14.37
2018-06-07T23:47:09.562Z,14.07
2018-06-07T23:49:39.751Z,13.27
2018-06-07T23:52:10.571Z,16.00
2018-06-07T23:54:40.161Z,13.63
2018-06-07T23:57:08.694Z,13.50
2018-06-07T23:59:40.349Z,13.23
